Time,TemperatureF,DewpointF,PressureIn,WindDirection,WindDirectionDegrees,WindSpeedMPH,WindSpeedGustMPH,Humidity,HourlyPrecipIn,Conditions,Clouds,dailyrainin,SoftwareType,DateUTC
2013-08-16 00:00:00,54.9,51.0,30.13,NNW,340,0.0,0.0,86,0.00,,,0.00,weatherlink.com 1.10,2013-08-16 04:00:00,
2013-08-16 00:16:00,55.0,51.0,30.13,NNW,339,0.0,1.0,85,0.00,,,0.00,weatherlink.com 1.10,2013-08-16 04:16:00,
2013-08-16 00:31:00,55.0,51.0,30.12,NNE,30,0.0,0.0,86,0.00,,,0.00,weatherlink.com 1.10,2013-08-16 04:31:00,
2013-08-16 00:46:00,55.0,51.0,30.12,NNE,17,0.0,1.0,87,0.00,,,0.00,weatherlink.com 1.10,2013-08-16 04:46:00,
2013-08-16 01:01:00,54.9,51.0,30.12,NNE,18,0.0,1.0,87,0.00,,,0.00,weatherlink.com 1.10,2013-08-16 05:01:00,
2013-08-16 01:16:00,54.8,51.0,30.12,NNE,18,0.0,1.0,87,0.00,,,0.00,weatherlink.com 1.10,2013-08-16 05:16:00,
2013-08-16 01:31:00,54.8,51.0,30.11,NNE,18,0.0,1.0,86,0.00,,,0.00,weatherlink.com 1.10,2013-08-16 05:31:00,
2013-08-16 01:46:00,54.6,51.0,30.11,NNE,17,0.0,1.0,86,0.00,,,0.00,weatherlink.com 1.10,2013-08-16 05:46:00,
2013-08-16 02:01:00,54.3,50.0,30.11,NNE,17,0.0,0.0,86,0.00,,,0.00,weatherlink.com 1.10,2013-08-16 06:01:00,
2013-08-16 02:16:00,54.7,51.0,30.11,NNE,19,0.0,1.0,86,0.00,,,0.00,weatherlink.com 1.10,2013-08-16 06:16:00,
2013-08-16 02:31:00,54.6,51.0,30.10,NNE,19,0.0,1.0,87,0.00,,,0.00,weatherlink.com 1.10,2013-08-16 06:31:00,
2013-08-16 02:46:00,54.5,50.0,30.10,NNE,19,0.0,1.0,86,0.00,,,0.00,weatherlink.com 1.10,2013-08-16 06:46:00,
2013-08-16 03:01:00,54.2,50.0,30.10,NNE,19,0.0,1.0,85,0.00,,,0.00,weatherlink.com 1.10,2013-08-16 07:01:00,
2013-08-16 03:16:00,54.4,50.0,30.09,NNE,18,0.0,1.0,86,0.00,,,0.00,weatherlink.com 1.10,2013-08-16 07:16:00,
2013-08-16 03:31:00,54.4,50.0,30.09,NNE,19,0.0,0.0,86,0.00,,,0.00,weatherlink.com 1.10,2013-08-16 07:31:00,
2013-08-16 03:46:00,54.4,50.0,30.10,NNE,19,0.0,0.0,86,0.00,,,0.00,weatherlink.com 1.10,2013-08-16 07:46:00,
2013-08-16 04:01:00,54.3,50.0,30.09,NNE,18,0.0,1.0,85,0.00,,,0.00,weatherlink.com 1.10,2013-08-16 08:01:00,
2013-08-16 04:16:00,54.4,51.0,30.09,NNE,19,0.0,1.0,87,0.00,,,0.00,weatherlink.com 1.10,2013-08-16 08:16:00,
2013-08-16 04:31:00,54.5,50.0,30.09,NNE,19,0.0,1.0,85,0.00,,,0.00,weatherlink.com 1.10,2013-08-16 08:31:00,
2013-08-16 04:46:00,54.4,50.0,30.09,NNE,19,1.0,1.0,85,0.00,,,0.00,weatherlink.com 1.10,2013-08-16 08:46:00,
2013-08-16 05:01:00,54.4,51.0,30.09,NNE,19,0.0,1.0,87,0.00,,,0.00,weatherlink.com 1.10,2013-08-16 09:01:00,
2013-08-16 05:16:00,54.1,50.0,30.09,NNE,23,0.0,1.0,86,0.00,,,0.00,weatherlink.com 1.10,2013-08-16 09:16:00,
2013-08-16 05:31:00,54.0,50.0,30.10,NNE,23,1.0,1.0,87,0.00,,,0.00,weatherlink.com 1.10,2013-08-16 09:31:00,
2013-08-16 05:46:00,53.9,50.0,30.10,NNE,23,0.0,1.0,86,0.00,,,0.00,weatherlink.com 1.10,2013-08-16 09:46:00,
2013-08-16 06:01:00,54.0,50.0,30.10,NNE,23,1.0,1.0,85,0.00,,,0.00,weatherlink.com 1.10,2013-08-16 10:01:00,
2013-08-16 06:16:00,54.0,50.0,30.11,NNE,23,0.0,0.0,87,0.00,,,0.00,weatherlink.com 1.10,2013-08-16 10:16:00,
2013-08-16 06:31:00,54.1,50.0,30.11,NNE,23,0.0,0.0,87,0.00,,,0.00,weatherlink.com 1.10,2013-08-16 10:31:00,
2013-08-16 06:46:00,54.1,50.0,30.11,NE,43,0.0,0.0,85,0.00,,,0.00,weatherlink.com 1.10,2013-08-16 10:46:00,
2013-08-16 07:01:00,54.4,50.0,30.12,NE,43,0.0,0.0,86,0.00,,,0.00,weatherlink.com 1.10,2013-08-16 11:01:00,
2013-08-16 07:16:00,54.5,50.0,30.12,NE,43,0.0,0.0,86,0.00,,,0.00,weatherlink.com 1.10,2013-08-16 11:16:00,
2013-08-16 07:31:00,54.3,50.0,30.12,NE,43,0.0,0.0,85,0.00,,,0.00,weatherlink.com 1.10,2013-08-16 11:31:00,
2013-08-16 07:46:00,54.5,51.0,30.12,NE,43,0.0,0.0,87,0.00,,,0.00,weatherlink.com 1.10,2013-08-16 11:46:00,
2013-08-16 08:01:00,54.4,51.0,30.12,NE,43,0.0,0.0,87,0.00,,,0.00,weatherlink.com 1.10,2013-08-16 12:01:00,
2013-08-16 08:16:00,54.3,51.0,30.12,NE,43,0.0,0.0,87,0.00,,,0.00,weatherlink.com 1.10,2013-08-16 12:16:00,
2013-08-16 08:31:00,54.5,51.0,30.12,NE,43,0.0,0.0,87,0.00,,,0.00,weatherlink.com 1.10,2013-08-16 12:31:00,
2013-08-16 08:46:00,54.7,51.0,30.12,NE,43,0.0,0.0,88,0.00,,,0.00,weatherlink.com 1.10,2013-08-16 12:46:00,
2013-08-16 09:01:00,55.4,52.0,30.13,NE,43,0.0,0.0,87,0.00,,,0.00,weatherlink.com 1.10,2013-08-16 13:01:00,
2013-08-16 09:16:00,56.1,52.0,30.12,NE,43,0.0,0.0,86,0.00,,,0.00,weatherlink.com 1.10,2013-08-16 13:16:00,
2013-08-16 09:31:00,57.0,53.0,30.12,NE,43,0.0,0.0,85,0.00,,,0.00,weatherlink.com 1.10,2013-08-16 13:31:00,
2013-08-16 09:46:00,57.7,53.0,30.13,NE,43,0.0,0.0,84,0.00,,,0.00,weatherlink.com 1.10,2013-08-16 13:46:00,
2013-08-16 10:01:00,58.6,55.0,30.13,NE,43,0.0,0.0,86,0.00,,,0.00,weatherlink.com 1.10,2013-08-16 14:01:00,
2013-08-16 10:16:00,59.8,53.0,30.13,SW,224,1.0,3.0,79,0.00,,,0.00,weatherlink.com 1.10,2013-08-16 14:16:00,
2013-08-16 10:31:00,60.5,55.0,30.13,SSW,200,0.0,2.0,81,0.00,,,0.00,weatherlink.com 1.10,2013-08-16 14:31:00,
2013-08-16 10:46:00,60.3,55.0,30.14,SSW,201,0.0,0.0,83,0.00,,,0.00,weatherlink.com 1.10,2013-08-16 14:46:00,
2013-08-16 11:01:00,60.7,55.0,30.14,SSW,205,0.0,1.0,81,0.00,,,0.00,weatherlink.com 1.10,2013-08-16 15:01:00,
2013-08-16 11:17:00,61.3,55.0,30.14,South,176,0.0,1.0,79,0.00,,,0.00,weatherlink.com 1.10,2013-08-16 15:17:00,
2013-08-16 11:32:00,62.3,55.0,30.13,SW,219,0.0,0.0,77,0.00,,,0.00,weatherlink.com 1.10,2013-08-16 15:32:00,
2013-08-16 11:48:00,62.7,56.0,30.13,SW,219,0.0,1.0,80,0.00,,,0.00,weatherlink.com 1.10,2013-08-16 15:48:00,
2013-08-16 12:03:00,63.8,55.0,30.12,WSW,250,0.0,1.0,72,0.00,,,0.00,weatherlink.com 1.10,2013-08-16 16:03:00,
2013-08-16 12:19:00,64.1,54.0,30.12,NNW,332,0.0,2.0,70,0.00,,,0.00,weatherlink.com 1.10,2013-08-16 16:19:00,
2013-08-16 12:33:00,64.9,57.0,30.12,WSW,252,0.0,1.0,76,0.00,,,0.00,weatherlink.com 1.10,2013-08-16 16:33:00,
2013-08-16 12:48:00,64.7,56.0,30.12,WSW,238,0.0,0.0,73,0.00,,,0.00,weatherlink.com 1.10,2013-08-16 16:48:00,
2013-08-16 13:03:00,65.0,56.0,30.12,SW,218,1.0,2.0,72,0.00,,,0.00,weatherlink.com 1.10,2013-08-16 17:03:00,
2013-08-16 13:18:00,65.3,57.0,30.12,SW,233,0.0,1.0,74,0.00,,,0.00,weatherlink.com 1.10,2013-08-16 17:18:00,
2013-08-16 13:33:00,65.5,56.0,30.12,WSW,239,0.0,3.0,72,0.00,,,0.00,weatherlink.com 1.10,2013-08-16 17:33:00,
2013-08-16 13:49:00,66.4,55.0,30.12,West,271,0.0,1.0,67,0.00,,,0.00,weatherlink.com 1.10,2013-08-16 17:49:00,
2013-08-16 14:04:00,66.5,56.0,30.12,West,269,0.0,0.0,70,0.00,,,0.00,weatherlink.com 1.10,2013-08-16 18:04:00,
2013-08-16 14:19:00,65.9,58.0,30.11,West,279,0.0,1.0,75,0.00,,,0.00,weatherlink.com 1.10,2013-08-16 18:19:00,
2013-08-16 14:34:00,65.3,56.0,30.12,West,278,0.0,1.0,71,0.00,,,0.00,weatherlink.com 1.10,2013-08-16 18:34:00,
2013-08-16 14:49:00,65.2,57.0,30.11,WSW,243,0.0,1.0,75,0.00,,,0.00,weatherlink.com 1.10,2013-08-16 18:49:00,
2013-08-16 15:04:00,65.9,58.0,30.11,SSW,207,1.0,2.0,76,0.00,,,0.00,weatherlink.com 1.10,2013-08-16 19:04:00,
2013-08-16 15:19:00,66.9,57.0,30.11,SW,231,1.0,3.0,70,0.00,,,0.00,weatherlink.com 1.10,2013-08-16 19:19:00,
2013-08-16 15:34:00,67.9,57.0,30.10,WSW,256,2.0,2.0,69,0.00,,,0.00,weatherlink.com 1.10,2013-08-16 19:34:00,
2013-08-16 15:49:00,68.6,56.0,30.10,SW,231,1.0,2.0,65,0.00,,,0.00,weatherlink.com 1.10,2013-08-16 19:49:00,
2013-08-16 16:04:00,68.4,57.0,30.10,West,264,0.0,3.0,67,0.00,,,0.00,weatherlink.com 1.10,2013-08-16 20:04:00,
2013-08-16 16:19:00,66.6,56.0,30.10,West,260,0.0,2.0,69,0.00,,,0.00,weatherlink.com 1.10,2013-08-16 20:19:00,
2013-08-16 16:34:00,65.6,58.0,30.10,WNW,294,0.0,1.0,77,0.00,,,0.00,weatherlink.com 1.10,2013-08-16 20:34:00,
2013-08-16 16:49:00,65.3,58.0,30.10,WNW,293,0.0,1.0,77,0.00,,,0.00,weatherlink.com 1.10,2013-08-16 20:49:00,
2013-08-16 17:04:00,66.4,59.0,30.10,West,279,1.0,2.0,76,0.00,,,0.00,weatherlink.com 1.10,2013-08-16 21:04:00,
2013-08-16 17:19:00,67.7,57.0,30.11,NW,323,1.0,7.0,69,0.00,,,0.00,weatherlink.com 1.10,2013-08-16 21:19:00,
2013-08-16 17:34:00,68.2,58.0,30.10,SW,228,0.0,4.0,69,0.00,,,0.00,weatherlink.com 1.10,2013-08-16 21:34:00,
2013-08-16 17:49:00,67.6,57.0,30.11,WSW,253,1.0,4.0,70,0.00,,,0.00,weatherlink.com 1.10,2013-08-16 21:49:00,
2013-08-16 18:04:00,66.5,57.0,30.11,West,281,1.0,4.0,71,0.00,,,0.00,weatherlink.com 1.10,2013-08-16 22:04:00,
2013-08-16 18:19:00,65.1,56.0,30.11,West,281,1.0,4.0,73,0.00,,,0.00,weatherlink.com 1.10,2013-08-16 22:19:00,
2013-08-16 18:34:00,63.4,56.0,30.11,West,275,0.0,2.0,77,0.00,,,0.00,weatherlink.com 1.10,2013-08-16 22:34:00,
2013-08-16 18:49:00,62.1,56.0,30.11,NW,316,0.0,2.0,81,0.00,,,0.00,weatherlink.com 1.10,2013-08-16 22:49:00,
2013-08-16 19:04:00,61.2,56.0,30.11,WNW,287,0.0,2.0,82,0.00,,,0.00,weatherlink.com 1.10,2013-08-16 23:04:00,
2013-08-16 19:19:00,60.7,55.0,30.11,West,276,1.0,3.0,81,0.00,,,0.00,weatherlink.com 1.10,2013-08-16 23:19:00,
2013-08-16 19:34:00,60.3,55.0,30.12,NW,314,0.0,5.0,82,0.00,,,0.00,weatherlink.com 1.10,2013-08-16 23:34:00,
2013-08-16 19:49:00,59.8,54.0,30.12,West,278,0.0,3.0,80,0.00,,,0.00,weatherlink.com 1.10,2013-08-16 23:49:00,
2013-08-16 20:04:00,59.1,54.0,30.12,WNW,294,1.0,2.0,82,0.00,,,0.00,weatherlink.com 1.10,2013-08-17 00:04:00,
2013-08-16 20:19:00,58.5,53.0,30.12,WNW,286,0.0,2.0,83,0.00,,,0.00,weatherlink.com 1.10,2013-08-17 00:19:00,
2013-08-16 20:34:00,58.3,53.0,30.13,WNW,284,0.0,2.0,83,0.00,,,0.00,weatherlink.com 1.10,2013-08-17 00:34:00,
2013-08-16 20:49:00,58.0,53.0,30.13,WNW,288,1.0,2.0,83,0.00,,,0.00,weatherlink.com 1.10,2013-08-17 00:49:00,
2013-08-16 21:04:00,57.5,52.0,30.14,NW,321,0.0,1.0,83,0.00,,,0.00,weatherlink.com 1.10,2013-08-17 01:04:00,
2013-08-16 21:19:00,57.5,52.0,30.14,NW,307,2.0,2.0,83,0.00,,,0.00,weatherlink.com 1.10,2013-08-17 01:19:00,
2013-08-16 21:34:00,57.9,53.0,30.14,NW,307,0.0,3.0,84,0.00,,,0.00,weatherlink.com 1.10,2013-08-17 01:34:00,
2013-08-16 21:49:00,58.0,54.0,30.15,WNW,297,1.0,3.0,86,0.00,,,0.00,weatherlink.com 1.10,2013-08-17 01:49:00,
2013-08-16 22:04:00,57.8,54.0,30.15,WNW,291,1.0,3.0,87,0.00,,,0.00,weatherlink.com 1.10,2013-08-17 02:04:00,
2013-08-16 22:19:00,57.5,54.0,30.15,WNW,282,1.0,2.0,88,0.00,,,0.00,weatherlink.com 1.10,2013-08-17 02:19:00,
2013-08-16 22:34:00,57.5,54.0,30.15,West,281,1.0,2.0,88,0.00,,,0.00,weatherlink.com 1.10,2013-08-17 02:34:00,
2013-08-16 22:49:00,57.2,54.0,30.15,NW,309,0.0,2.0,88,0.00,,,0.00,weatherlink.com 1.10,2013-08-17 02:49:00,
2013-08-16 23:04:00,56.9,54.0,30.15,NW,308,0.0,2.0,89,0.00,,,0.00,weatherlink.com 1.10,2013-08-17 03:04:00,
2013-08-16 23:19:00,56.7,54.0,30.15,WNW,282,0.0,3.0,89,0.00,,,0.00,weatherlink.com 1.10,2013-08-17 03:19:00,
2013-08-16 23:34:00,56.8,54.0,30.15,WSW,257,0.0,2.0,89,0.00,,,0.00,weatherlink.com 1.10,2013-08-17 03:34:00,
2013-08-16 23:49:00,56.6,54.0,30.15,West,281,1.0,3.0,90,0.00,,,0.00,weatherlink.com 1.10,2013-08-17 03:49:00,